createdAt,value
2023-05-05T00:00:25.135Z,517.0000
2023-05-05T00:01:33.511Z,519.0000
2023-05-05T00:02:41.534Z,517.0000
2023-05-05T00:03:49.629Z,524.0000
2023-05-05T00:04:57.613Z,541.0000
2023-05-05T00:06:05.649Z,540.0000
2023-05-05T00:07:13.661Z,532.0000
2023-05-05T00:08:21.754Z,526.0000
2023-05-05T00:09:29.757Z,515.0000
2023-05-05T00:10:37.860Z,497.0000
2023-05-05T00:11:45.892Z,499.0000
2023-05-05T00:12:53.851Z,505.0000
2023-05-05T00:14:01.885Z,505.0000
2023-05-05T00:15:09.916Z,496.0000
2023-05-05T00:16:18.103Z,503.0000
2023-05-05T00:17:26.299Z,501.0000
2023-05-05T00:18:34.252Z,503.0000
2023-05-05T00:19:42.343Z,508.0000
2023-05-05T00:20:50.368Z,501.0000
2023-05-05T00:21:58.400Z,500.0000
2023-05-05T00:23:06.472Z,510.0000
2023-05-05T00:24:14.711Z,510.0000
2023-05-05T00:25:22.644Z,514.0000
2023-05-05T00:26:30.606Z,530.0000
2023-05-05T00:27:40.236Z,521.0000
2023-05-05T00:28:51.488Z,514.0000
2023-05-05T00:29:59.832Z,519.0000
2023-05-05T00:31:07.865Z,511.0000
2023-05-05T00:32:15.824Z,513.0000
2023-05-05T00:33:23.919Z,525.0000
2023-05-05T00:34:31.955Z,525.0000
2023-05-05T00:35:39.976Z,527.0000
2023-05-05T00:36:48.061Z,530.0000
2023-05-05T00:37:56.157Z,518.0000
2023-05-05T00:39:04.234Z,548.0000
2023-05-05T00:40:12.246Z,531.0000
2023-05-05T00:41:20.171Z,532.0000
2023-05-05T00:42:28.217Z,537.0000
2023-05-05T00:43:36.273Z,559.0000
2023-05-05T00:44:44.715Z,579.0000
2023-05-05T00:45:52.520Z,581.0000
2023-05-05T00:47:00.770Z,505.0000
2023-05-05T00:48:08.796Z,531.0000
2023-05-05T00:49:16.851Z,537.0000
2023-05-05T00:50:24.773Z,531.0000
2023-05-05T00:51:32.852Z,524.0000
2023-05-05T00:52:40.996Z,529.0000
2023-05-05T00:53:48.990Z,522.0000
2023-05-05T00:54:57.053Z,523.0000
2023-05-05T00:56:04.960Z,522.0000
2023-05-05T00:57:13.029Z,526.0000
2023-05-05T00:58:21.100Z,525.0000
2023-05-05T00:59:29.305Z,519.0000
2023-05-05T01:00:37.334Z,522.0000
2023-05-05T01:01:45.399Z,517.0000
2023-05-05T01:02:53.588Z,521.0000
2023-05-05T01:04:01.742Z,530.0000
2023-05-05T01:05:09.585Z,539.0000
2023-05-05T01:06:17.677Z,523.0000
2023-05-05T01:07:25.695Z,529.0000
2023-05-05T01:08:33.779Z,520.0000
2023-05-05T01:09:41.869Z,530.0000
2023-05-05T01:10:49.756Z,545.0000
2023-05-05T01:11:57.813Z,529.0000
2023-05-05T01:13:05.961Z,520.0000
2023-05-05T01:14:14.087Z,533.0000
2023-05-05T01:15:22.139Z,505.0000
2023-05-05T01:16:30.199Z,516.0000
2023-05-05T01:17:38.309Z,517.0000
2023-05-05T01:18:46.319Z,524.0000
2023-05-05T01:19:54.611Z,513.0000
2023-05-05T01:21:02.508Z,507.0000
2023-05-05T01:22:10.631Z,512.0000
2023-05-05T01:23:18.628Z,519.0000
2023-05-05T01:24:26.771Z,555.0000
2023-05-05T01:25:34.618Z,502.0000
2023-05-05T01:26:42.680Z,501.0000
2023-05-05T01:27:50.721Z,544.0000
2023-05-05T01:28:58.945Z,515.0000
2023-05-05T01:30:07.304Z,524.0000
2023-05-05T01:31:15.080Z,519.0000
2023-05-05T01:32:23.114Z,509.0000
2023-05-05T01:33:31.151Z,509.0000
2023-05-05T01:34:39.207Z,546.0000
2023-05-05T01:35:47.474Z,529.0000
2023-05-05T01:36:55.337Z,543.0000
2023-05-05T01:38:03.402Z,513.0000
2023-05-05T01:39:11.466Z,515.0000
2023-05-05T01:40:19.447Z,523.0000
2023-05-05T01:41:27.416Z,523.0000
2023-05-05T01:42:35.538Z,533.0000
2023-05-05T01:43:43.754Z,510.0000
2023-05-05T01:44:51.792Z,526.0000
2023-05-05T01:45:59.873Z,528.0000
2023-05-05T01:47:07.923Z,560.0000
2023-05-05T01:48:15.939Z,541.0000
2023-05-05T01:49:23.990Z,546.0000
2023-05-05T01:50:32.086Z,547.0000
2023-05-05T01:51:40.117Z,534.0000
2023-05-05T01:52:48.290Z,548.0000
2023-05-05T01:53:56.323Z,546.0000
2023-05-05T01:55:04.168Z,539.0000
2023-05-05T01:56:12.206Z,541.0000
2023-05-05T01:57:20.276Z,535.0000
2023-05-05T01:58:28.472Z,540.0000
2023-05-05T01:59:36.504Z,535.0000
2023-05-05T02:00:44.794Z,541.0000
2023-05-05T02:01:52.644Z,530.0000
2023-05-05T02:03:00.725Z,520.0000
2023-05-05T02:04:08.737Z,523.0000
2023-05-05T02:05:16.948Z,525.0000
2023-05-05T02:06:24.887Z,522.0000
2023-05-05T02:07:32.928Z,524.0000
2023-05-05T02:08:41.232Z,524.0000
2023-05-05T02:09:48.970Z,521.0000
2023-05-05T02:10:57.018Z,525.0000
2023-05-05T02:12:05.103Z,523.0000
2023-05-05T02:13:13.384Z,519.0000
2023-05-05T02:14:21.304Z,523.0000
2023-05-05T02:15:29.426Z,522.0000
2023-05-05T02:16:37.637Z,539.0000
2023-05-05T02:17:45.551Z,530.0000
2023-05-05T02:18:53.562Z,506.0000
2023-05-05T02:20:01.714Z,522.0000
2023-05-05T02:21:09.695Z,504.0000
2023-05-05T02:22:17.720Z,517.0000
2023-05-05T02:23:25.892Z,516.0000
2023-05-05T02:24:33.728Z,517.0000
2023-05-05T02:25:41.806Z,528.0000
2023-05-05T02:26:49.846Z,508.0000
2023-05-05T02:27:58.055Z,506.0000
2023-05-05T02:29:06.070Z,517.0000
2023-05-05T02:30:14.207Z,506.0000
2023-05-05T02:31:22.209Z,527.0000
2023-05-05T02:32:30.464Z,524.0000
2023-05-05T02:33:38.320Z,514.0000
2023-05-05T02:34:46.374Z,537.0000
2023-05-05T02:35:54.480Z,515.0000
2023-05-05T02:37:02.484Z,538.0000
2023-05-05T02:38:10.639Z,507.0000
2023-05-05T02:39:18.484Z,528.0000
2023-05-05T02:40:26.563Z,519.0000
2023-05-05T02:41:34.642Z,526.0000
2023-05-05T02:42:42.709Z,530.0000
2023-05-05T02:43:50.752Z,535.0000
2023-05-05T02:44:58.958Z,543.0000
2023-05-05T02:46:07.058Z,539.0000
2023-05-05T02:47:15.040Z,538.0000
2023-05-05T02:48:23.138Z,540.0000
2023-05-05T02:49:31.294Z,550.0000
2023-05-05T02:50:39.299Z,544.0000
2023-05-05T02:51:47.315Z,536.0000
2023-05-05T02:52:55.364Z,535.0000
2023-05-05T02:54:03.366Z,534.0000
2023-05-05T02:55:11.594Z,537.0000
2023-05-05T02:56:19.452Z,536.0000
2023-05-05T02:57:27.444Z,543.0000
2023-05-05T02:58:35.547Z,539.0000
2023-05-05T02:59:43.756Z,535.0000
2023-05-05T03:00:51.827Z,544.0000
2023-05-05T03:01:59.909Z,550.0000
2023-05-05T03:03:07.918Z,544.0000
2023-05-05T03:04:15.950Z,544.0000
2023-05-05T03:05:23.995Z,531.0000
2023-05-05T03:06:32.121Z,534.0000
2023-05-05T03:07:40.148Z,547.0000
2023-05-05T03:08:48.188Z,549.0000
2023-05-05T03:09:56.272Z,538.0000
2023-05-05T03:11:04.258Z,550.0000
2023-05-05T03:12:12.261Z,526.0000
2023-05-05T03:13:20.356Z,544.0000
2023-05-05T03:14:29.583Z,531.0000
2023-05-05T03:15:41.510Z,546.0000
2023-05-05T03:16:49.560Z,537.0000
2023-05-05T03:17:57.670Z,531.0000
2023-05-05T03:19:05.662Z,550.0000
2023-05-05T03:20:13.703Z,522.0000
2023-05-05T03:21:21.921Z,540.0000
2023-05-05T03:22:29.848Z,550.0000
2023-05-05T03:23:37.843Z,551.0000
2023-05-05T03:24:45.776Z,551.0000
2023-05-05T03:25:53.873Z,537.0000
2023-05-05T03:27:01.964Z,534.0000
2023-05-05T03:28:10.112Z,549.0000
2023-05-05T03:29:18.198Z,548.0000
2023-05-05T03:30:26.285Z,537.0000
2023-05-05T03:31:34.362Z,536.0000
2023-05-05T03:32:42.358Z,530.0000
2023-05-05T03:33:50.438Z,524.0000
2023-05-05T03:34:58.636Z,527.0000
2023-05-05T03:36:06.544Z,526.0000
2023-05-05T03:37:14.800Z,546.0000
2023-05-05T03:38:22.627Z,557.0000
2023-05-05T03:39:30.576Z,533.0000
2023-05-05T03:40:44.127Z,544.0000
2023-05-05T03:41:51.764Z,543.0000
2023-05-05T03:42:59.793Z,538.0000
2023-05-05T03:44:07.855Z,548.0000
2023-05-05T03:45:16.049Z,561.0000
2023-05-05T03:46:23.969Z,555.0000
2023-05-05T03:47:32.005Z,547.0000
2023-05-05T03:48:40.042Z,574.0000
2023-05-05T03:49:48.126Z,606.0000
2023-05-05T03:50:56.154Z,596.0000
2023-05-05T03:52:04.248Z,588.0000
2023-05-05T03:53:12.165Z,585.0000
2023-05-05T03:54:20.206Z,591.0000
2023-05-05T03:55:28.270Z,593.0000
2023-05-05T03:56:36.513Z,593.0000
2023-05-05T03:57:44.526Z,593.0000
2023-05-05T03:58:52.579Z,598.0000
2023-05-05T04:00:00.648Z,597.0000
2023-05-05T04:01:08.697Z,600.0000
2023-05-05T04:02:18.630Z,601.0000
2023-05-05T04:03:29.707Z,620.0000
2023-05-05T04:04:37.697Z,611.0000
2023-05-05T04:05:45.761Z,604.0000
2023-05-05T04:06:53.788Z,609.0000
2023-05-05T04:08:01.794Z,618.0000
2023-05-05T04:09:09.818Z,624.0000
2023-05-05T04:10:18.040Z,610.0000
2023-05-05T04:11:26.141Z,597.0000
2023-05-05T04:12:34.225Z,588.0000
2023-05-05T04:13:42.452Z,592.0000
2023-05-05T04:14:50.314Z,582.0000
2023-05-05T04:15:58.467Z,558.0000
2023-05-05T04:17:06.374Z,549.0000
2023-05-05T04:18:14.465Z,587.0000
2023-05-05T04:19:22.539Z,596.0000
2023-05-05T04:20:30.528Z,612.0000
2023-05-05T04:21:38.564Z,609.0000
2023-05-05T04:22:46.602Z,571.0000
2023-05-05T04:23:54.620Z,572.0000
2023-05-05T04:25:02.768Z,606.0000
2023-05-05T04:26:10.856Z,603.0000
2023-05-05T04:27:18.931Z,597.0000
2023-05-05T04:28:27.064Z,601.0000
2023-05-05T04:29:35.104Z,605.0000
2023-05-05T04:30:43.131Z,613.0000
2023-05-05T04:31:51.249Z,637.0000
2023-05-05T04:32:59.321Z,622.0000
2023-05-05T04:34:07.385Z,594.0000
2023-05-05T04:35:15.341Z,612.0000
2023-05-05T04:36:23.288Z,616.0000
2023-05-05T04:37:31.386Z,608.0000
2023-05-05T04:38:39.407Z,611.0000
2023-05-05T04:39:47.528Z,604.0000
2023-05-05T04:40:55.621Z,610.0000
2023-05-05T04:42:03.683Z,620.0000
2023-05-05T04:43:11.811Z,617.0000
2023-05-05T04:44:19.794Z,590.0000
2023-05-05T04:45:27.825Z,600.0000
2023-05-05T04:46:35.918Z,598.0000
2023-05-05T04:47:44.131Z,620.0000
2023-05-05T04:48:52.123Z,612.0000
2023-05-05T04:50:00.125Z,623.0000
2023-05-05T04:51:08.077Z,617.0000
2023-05-05T04:52:16.140Z,609.0000
2023-05-05T04:53:24.212Z,599.0000
2023-05-05T04:54:32.337Z,585.0000
2023-05-05T04:55:40.357Z,585.0000
2023-05-05T04:56:48.403Z,584.0000
2023-05-05T04:57:56.558Z,581.0000
2023-05-05T04:59:04.548Z,587.0000
2023-05-05T05:00:12.576Z,595.0000
2023-05-05T05:01:20.664Z,618.0000
2023-05-05T05:02:28.774Z,612.0000
2023-05-05T05:03:36.864Z,573.0000
2023-05-05T05:04:44.865Z,581.0000
2023-05-05T05:05:52.967Z,569.0000
2023-05-05T05:07:00.855Z,542.0000
2023-05-05T05:08:08.974Z,539.0000
2023-05-05T05:09:17.157Z,553.0000
2023-05-05T05:10:25.186Z,574.0000
2023-05-05T05:11:33.237Z,577.0000
2023-05-05T05:12:41.288Z,575.0000
2023-05-05T05:13:49.386Z,566.0000
2023-05-05T05:14:57.512Z,554.0000
2023-05-05T05:16:05.582Z,554.0000
2023-05-05T05:17:13.456Z,558.0000
2023-05-05T05:18:21.596Z,559.0000
2023-05-05T05:19:29.693Z,563.0000
2023-05-05T05:20:37.546Z,558.0000
2023-05-05T05:21:45.628Z,565.0000
2023-05-05T05:22:53.711Z,569.0000
2023-05-05T05:24:01.789Z,576.0000
2023-05-05T05:25:09.913Z,571.0000
2023-05-05T05:26:17.974Z,574.0000
2023-05-05T05:27:26.010Z,573.0000
2023-05-05T05:28:34.209Z,566.0000
2023-05-05T05:29:42.187Z,575.0000
2023-05-05T05:30:50.249Z,580.0000
2023-05-05T05:31:58.392Z,573.0000
2023-05-05T05:33:06.437Z,574.0000
2023-05-05T05:34:14.463Z,575.0000
2023-05-05T05:35:22.405Z,565.0000
2023-05-05T05:36:30.472Z,566.0000
2023-05-05T05:37:38.573Z,558.0000
2023-05-05T05:38:46.605Z,568.0000
2023-05-05T05:39:54.710Z,577.0000
2023-05-05T05:41:02.854Z,582.0000
2023-05-05T05:42:10.841Z,584.0000
2023-05-05T05:43:18.983Z,583.0000
2023-05-05T05:44:27.001Z,596.0000
2023-05-05T05:45:35.228Z,587.0000
2023-05-05T05:46:43.151Z,578.0000
2023-05-05T05:47:51.363Z,582.0000
2023-05-05T05:48:59.327Z,591.0000
2023-05-05T05:50:07.438Z,589.0000
2023-05-05T05:51:15.222Z,591.0000
2023-05-05T05:52:23.265Z,573.0000
2023-05-05T05:53:31.517Z,591.0000
2023-05-05T05:54:39.380Z,576.0000
2023-05-05T05:55:47.719Z,556.0000
2023-05-05T05:56:55.580Z,579.0000
2023-05-05T05:58:03.720Z,587.0000
2023-05-05T05:59:11.786Z,562.0000
2023-05-05T06:00:19.763Z,576.0000
2023-05-05T06:01:27.840Z,585.0000
2023-05-05T06:02:35.934Z,560.0000
2023-05-05T06:03:44.046Z,584.0000
2023-05-05T06:04:51.927Z,585.0000
2023-05-05T06:05:59.976Z,578.0000
2023-05-05T06:07:08.006Z,584.0000
2023-05-05T06:08:16.171Z,587.0000
2023-05-05T06:09:24.330Z,571.0000
2023-05-05T06:10:32.524Z,586.0000
2023-05-05T06:11:45.258Z,577.0000
2023-05-05T06:12:53.652Z,581.0000
2023-05-05T06:14:01.414Z,582.0000
2023-05-05T06:15:09.397Z,571.0000
2023-05-05T06:16:17.538Z,584.0000
2023-05-05T06:17:25.497Z,586.0000
2023-05-05T06:18:33.547Z,582.0000
2023-05-05T06:19:41.535Z,579.0000
2023-05-05T06:20:49.609Z,571.0000
2023-05-05T06:21:57.908Z,561.0000
2023-05-05T06:23:05.872Z,566.0000
2023-05-05T06:24:13.912Z,560.0000
2023-05-05T06:25:21.981Z,555.0000
2023-05-05T06:26:30.003Z,564.0000
2023-05-05T06:27:38.022Z,557.0000
2023-05-05T06:28:46.112Z,550.0000
2023-05-05T06:29:54.250Z,562.0000
2023-05-05T06:31:02.303Z,552.0000
2023-05-05T06:32:10.286Z,559.0000
2023-05-05T06:33:18.244Z,539.0000
2023-05-05T06:34:26.295Z,558.0000
2023-05-05T06:35:34.388Z,541.0000
2023-05-05T06:36:42.466Z,553.0000
2023-05-05T06:37:50.607Z,547.0000
2023-05-05T06:38:58.618Z,542.0000
2023-05-05T06:40:06.861Z,538.0000
2023-05-05T06:41:14.826Z,530.0000
2023-05-05T06:42:22.827Z,544.0000
2023-05-05T06:43:30.938Z,547.0000
2023-05-05T06:44:38.906Z,540.0000
2023-05-05T06:45:47.212Z,530.0000
2023-05-05T06:46:55.088Z,546.0000
2023-05-05T06:48:03.059Z,548.0000
2023-05-05T06:49:11.050Z,527.0000
2023-05-05T06:50:19.103Z,539.0000
2023-05-05T06:51:27.364Z,541.0000
2023-05-05T06:52:35.412Z,538.0000
2023-05-05T06:53:43.405Z,540.0000
2023-05-05T06:54:51.507Z,533.0000
2023-05-05T06:55:59.518Z,551.0000
2023-05-05T06:57:07.565Z,498.0000
2023-05-05T06:58:15.614Z,524.0000
2023-05-05T06:59:23.681Z,520.0000
2023-05-05T07:00:31.736Z,524.0000
2023-05-05T07:01:39.880Z,535.0000
2023-05-05T07:02:47.771Z,534.0000
2023-05-05T07:03:55.877Z,519.0000
2023-05-05T07:05:03.896Z,513.0000
2023-05-05T07:06:12.009Z,529.0000
2023-05-05T07:07:20.147Z,525.0000
2023-05-05T07:08:28.190Z,502.0000
2023-05-05T07:09:36.304Z,520.0000
2023-05-05T07:10:44.296Z,515.0000
2023-05-05T07:11:52.397Z,509.0000
2023-05-05T07:13:00.444Z,539.0000
2023-05-05T07:14:08.438Z,517.0000
2023-05-05T07:15:27.614Z,522.0000
2023-05-05T07:16:29.372Z,520.0000
2023-05-05T07:17:37.383Z,506.0000
2023-05-05T07:18:45.432Z,511.0000
2023-05-05T07:19:53.753Z,507.0000
2023-05-05T07:21:01.630Z,526.0000
2023-05-05T07:22:09.637Z,524.0000
2023-05-05T07:23:17.849Z,510.0000
2023-05-05T07:24:25.803Z,540.0000
2023-05-05T07:25:33.948Z,471.0000
2023-05-05T07:26:42.004Z,482.0000
2023-05-05T07:27:50.063Z,501.0000
2023-05-05T07:28:58.082Z,517.0000
2023-05-05T07:30:10.057Z,491.0000
2023-05-05T07:31:18.927Z,518.0000
2023-05-05T07:32:27.096Z,496.0000
2023-05-05T07:33:35.074Z,463.0000
2023-05-05T07:34:43.271Z,514.0000
2023-05-05T07:35:51.399Z,478.0000
2023-05-05T07:36:59.410Z,473.0000
2023-05-05T07:38:08.719Z,517.0000
2023-05-05T07:39:20.332Z,501.0000
2023-05-05T07:40:28.371Z,496.0000
2023-05-05T07:41:36.462Z,503.0000
2023-05-05T07:42:44.626Z,491.0000
2023-05-05T07:43:52.677Z,503.0000
2023-05-05T07:45:00.470Z,500.0000
2023-05-05T07:46:08.548Z,495.0000
2023-05-05T07:47:16.629Z,497.0000
2023-05-05T07:48:24.769Z,493.0000
2023-05-05T07:49:32.874Z,489.0000
2023-05-05T07:50:40.905Z,504.0000
2023-05-05T07:51:49.127Z,506.0000
2023-05-05T07:53:06.250Z,463.0000
2023-05-05T07:54:09.916Z,512.0000
2023-05-05T07:55:18.018Z,516.0000
2023-05-05T07:56:26.068Z,515.0000
2023-05-05T07:57:34.239Z,488.0000
2023-05-05T07:58:42.035Z,502.0000
2023-05-05T07:59:50.067Z,481.0000
2023-05-05T08:00:58.141Z,520.0000
2023-05-05T08:02:06.345Z,487.0000
2023-05-05T08:03:14.441Z,508.0000
2023-05-05T08:04:22.428Z,513.0000
2023-05-05T08:05:30.502Z,507.0000
2023-05-05T08:06:38.506Z,501.0000
2023-05-05T08:07:46.800Z,503.0000
2023-05-05T08:08:54.665Z,524.0000
2023-05-05T08:10:02.718Z,489.0000
2023-05-05T08:11:10.834Z,518.0000
2023-05-05T08:12:18.868Z,496.0000
2023-05-05T08:13:26.809Z,487.0000
2023-05-05T08:14:34.840Z,517.0000
2023-05-05T08:15:42.910Z,515.0000
2023-05-05T08:16:51.064Z,487.0000
2023-05-05T08:17:59.190Z,488.0000
2023-05-05T08:19:17.670Z,499.0000
2023-05-05T08:20:20.182Z,490.0000
2023-05-05T08:21:28.164Z,521.0000
2023-05-05T08:22:36.282Z,487.0000
2023-05-05T08:23:44.300Z,483.0000
2023-05-05T08:24:52.634Z,505.0000
2023-05-05T08:26:00.285Z,489.0000
2023-05-05T08:27:08.339Z,487.0000
2023-05-05T08:28:16.440Z,454.0000
2023-05-05T08:29:24.641Z,502.0000
2023-05-05T08:30:32.927Z,496.0000
2023-05-05T08:31:40.751Z,488.0000
2023-05-05T08:32:48.910Z,462.0000
2023-05-05T08:33:56.958Z,524.0000
2023-05-05T08:35:04.927Z,531.0000
2023-05-05T08:36:12.932Z,464.0000
2023-05-05T08:37:21.071Z,516.0000
2023-05-05T08:38:29.066Z,511.0000
2023-05-05T08:39:37.168Z,479.0000
2023-05-05T08:40:45.049Z,478.0000
2023-05-05T08:41:53.152Z,523.0000
2023-05-05T08:43:01.203Z,506.0000
2023-05-05T08:44:09.479Z,486.0000
2023-05-05T08:45:17.543Z,476.0000
2023-05-05T08:46:25.482Z,525.0000
2023-05-05T08:47:33.555Z,505.0000
2023-05-05T08:48:41.741Z,486.0000
2023-05-05T08:49:49.715Z,469.0000
2023-05-05T08:50:59.542Z,474.0000
2023-05-05T08:52:10.647Z,482.0000
2023-05-05T08:53:18.668Z,514.0000
2023-05-05T08:54:26.637Z,479.0000
2023-05-05T08:55:34.690Z,491.0000
2023-05-05T08:56:42.751Z,460.0000
2023-05-05T08:57:51.110Z,480.0000
2023-05-05T08:58:58.965Z,483.0000
2023-05-05T09:00:07.008Z,464.0000
2023-05-05T09:01:15.159Z,480.0000
2023-05-05T09:02:23.209Z,488.0000
2023-05-05T09:03:31.190Z,470.0000
2023-05-05T09:04:39.282Z,488.0000
2023-05-05T09:05:47.277Z,496.0000
2023-05-05T09:06:55.308Z,485.0000
2023-05-05T09:08:03.584Z,467.0000
2023-05-05T09:09:11.406Z,474.0000
2023-05-05T09:10:19.452Z,492.0000
2023-05-05T09:11:27.531Z,491.0000
2023-05-05T09:12:35.664Z,487.0000
2023-05-05T09:13:43.892Z,481.0000
2023-05-05T09:14:51.770Z,489.0000
2023-05-05T09:15:59.894Z,459.0000
2023-05-05T09:17:07.981Z,473.0000
2023-05-05T09:18:15.956Z,460.0000
2023-05-05T09:19:23.974Z,480.0000
2023-05-05T09:20:32.234Z,480.0000
2023-05-05T09:21:40.117Z,472.0000
2023-05-05T09:22:48.174Z,474.0000
2023-05-05T09:23:58.535Z,477.0000
2023-05-05T09:25:09.251Z,484.0000
2023-05-05T09:26:17.214Z,479.0000
2023-05-05T09:27:25.264Z,493.0000
2023-05-05T09:28:33.264Z,484.0000
2023-05-05T09:29:41.493Z,479.0000
2023-05-05T09:30:49.493Z,473.0000
2023-05-05T09:31:57.533Z,509.0000
2023-05-05T09:33:05.667Z,507.0000
2023-05-05T09:34:13.630Z,485.0000
2023-05-05T09:35:21.727Z,466.0000
2023-05-05T09:36:29.700Z,526.0000
2023-05-05T09:37:37.736Z,507.0000
2023-05-05T09:38:45.819Z,465.0000
2023-05-05T09:39:53.929Z,481.0000
2023-05-05T09:41:02.136Z,484.0000
2023-05-05T09:42:10.095Z,482.0000
2023-05-05T09:43:18.163Z,482.0000
2023-05-05T09:44:26.358Z,483.0000
2023-05-05T09:45:34.286Z,490.0000
2023-05-05T09:46:42.515Z,452.0000
2023-05-05T09:47:50.652Z,516.0000
2023-05-05T09:48:58.503Z,481.0000
2023-05-05T09:50:06.696Z,480.0000
2023-05-05T09:51:14.449Z,467.0000
2023-05-05T09:52:22.546Z,461.0000
2023-05-05T09:53:30.556Z,495.0000
2023-05-05T09:54:38.790Z,450.0000
2023-05-05T09:55:46.832Z,466.0000
2023-05-05T09:56:54.827Z,481.0000
2023-05-05T09:58:02.985Z,487.0000
2023-05-05T09:59:11.098Z,473.0000
2023-05-05T10:00:18.923Z,472.0000
2023-05-05T10:01:27.162Z,495.0000
2023-05-05T10:02:35.146Z,479.0000
2023-05-05T10:03:43.265Z,516.0000
2023-05-05T10:04:51.259Z,488.0000
2023-05-05T10:05:59.208Z,473.0000
2023-05-05T10:07:07.263Z,512.0000
2023-05-05T10:08:15.342Z,468.0000
2023-05-05T10:09:23.503Z,455.0000
2023-05-05T10:10:31.610Z,512.0000
2023-05-05T10:11:39.552Z,504.0000
2023-05-05T10:12:47.782Z,439.0000
2023-05-05T10:13:55.773Z,447.0000
2023-05-05T10:15:03.809Z,497.0000
2023-05-05T10:16:12.022Z,495.0000
2023-05-05T10:17:19.888Z,494.0000
2023-05-05T10:18:27.967Z,470.0000
2023-05-05T10:19:36.006Z,461.0000
2023-05-05T10:20:44.024Z,458.0000
2023-05-05T10:21:52.080Z,503.0000
2023-05-05T10:23:00.148Z,495.0000
2023-05-05T10:24:08.245Z,484.0000
2023-05-05T10:25:16.308Z,505.0000
2023-05-05T10:26:24.466Z,436.0000
2023-05-05T10:27:32.524Z,521.0000
2023-05-05T10:28:40.540Z,427.0000
2023-05-05T10:29:48.633Z,495.0000
2023-05-05T10:30:56.704Z,498.0000
2023-05-05T10:32:21.456Z,488.0000
2023-05-05T10:33:30.213Z,462.0000
2023-05-05T10:34:30.491Z,461.0000
2023-05-05T10:35:38.660Z,482.0000
2023-05-05T10:36:46.787Z,451.0000
2023-05-05T10:37:54.826Z,497.0000
2023-05-05T10:39:02.826Z,480.0000
2023-05-05T10:40:11.241Z,486.0000
2023-05-05T10:41:18.979Z,458.0000
2023-05-05T10:42:27.082Z,468.0000
2023-05-05T10:43:35.116Z,481.0000
2023-05-05T10:44:43.116Z,470.0000
2023-05-05T10:45:51.243Z,472.0000
2023-05-05T10:46:59.172Z,438.0000
2023-05-05T10:48:07.247Z,470.0000
2023-05-05T10:49:15.277Z,513.0000
2023-05-05T10:50:23.390Z,470.0000
2023-05-05T10:51:40.094Z,513.0000
2023-05-05T10:52:44.517Z,479.0000
2023-05-05T10:53:52.522Z,489.0000
2023-05-05T10:55:00.509Z,474.0000
2023-05-05T10:56:08.722Z,463.0000
2023-05-05T10:57:16.735Z,492.0000
2023-05-05T10:58:24.723Z,511.0000
2023-05-05T10:59:32.845Z,546.0000
2023-05-05T11:00:40.814Z,466.0000
2023-05-05T11:01:48.838Z,457.0000
2023-05-05T11:02:56.999Z,440.0000
2023-05-05T11:04:05.105Z,476.0000
2023-05-05T11:05:13.102Z,497.0000
2023-05-05T11:06:21.119Z,461.0000
2023-05-05T11:07:29.309Z,500.0000
2023-05-05T11:08:37.557Z,462.0000
2023-05-05T11:09:45.440Z,441.0000
2023-05-05T11:10:53.494Z,493.0000
2023-05-05T11:12:01.596Z,461.0000
2023-05-05T11:13:09.590Z,496.0000
2023-05-05T11:14:17.640Z,451.0000
2023-05-05T11:15:25.633Z,455.0000
2023-05-05T11:16:33.726Z,498.0000
2023-05-05T11:17:41.832Z,498.0000
2023-05-05T11:18:49.968Z,449.0000
2023-05-05T11:19:57.984Z,467.0000
2023-05-05T11:21:06.003Z,461.0000
2023-05-05T11:22:14.106Z,478.0000
2023-05-05T11:23:22.216Z,461.0000
2023-05-05T11:24:30.274Z,529.0000
2023-05-05T11:25:38.404Z,475.0000
2023-05-05T11:26:46.361Z,456.0000
2023-05-05T11:27:54.444Z,482.0000
2023-05-05T11:29:02.501Z,531.0000
2023-05-05T11:30:10.705Z,506.0000
2023-05-05T11:31:18.605Z,506.0000
2023-05-05T11:32:26.633Z,466.0000
2023-05-05T11:33:34.785Z,471.0000
2023-05-05T11:34:42.772Z,485.0000
2023-05-05T11:35:50.847Z,457.0000
2023-05-05T11:36:58.948Z,481.0000
2023-05-05T11:38:07.036Z,499.0000
2023-05-05T11:39:15.049Z,461.0000
2023-05-05T11:40:23.129Z,525.0000
2023-05-05T11:41:31.230Z,435.0000
2023-05-05T11:42:39.290Z,525.0000
2023-05-05T11:43:47.274Z,493.0000
2023-05-05T11:44:55.301Z,466.0000
2023-05-05T11:46:03.396Z,471.0000
2023-05-05T11:47:11.408Z,494.0000
2023-05-05T11:48:19.770Z,445.0000
2023-05-05T11:49:27.691Z,495.0000
2023-05-05T11:50:35.855Z,468.0000
2023-05-05T11:51:43.787Z,484.0000
2023-05-05T11:52:51.848Z,467.0000
2023-05-05T11:53:59.904Z,483.0000
2023-05-05T11:55:07.972Z,499.0000
2023-05-05T11:56:16.102Z,461.0000
2023-05-05T11:57:24.245Z,465.0000
2023-05-05T11:58:32.205Z,468.0000
2023-05-05T11:59:40.086Z,527.0000
2023-05-05T12:00:48.147Z,532.0000
2023-05-05T12:01:56.213Z,417.0000
2023-05-05T12:03:04.522Z,453.0000
2023-05-05T12:04:12.861Z,454.0000
2023-05-05T12:05:20.546Z,528.0000
2023-05-05T12:06:28.610Z,490.0000
2023-05-05T12:07:36.631Z,487.0000
2023-05-05T12:08:44.777Z,487.0000
2023-05-05T12:09:52.791Z,458.0000
2023-05-05T12:11:01.009Z,483.0000
2023-05-05T12:12:08.974Z,485.0000
2023-05-05T12:13:17.131Z,484.0000
2023-05-05T12:14:24.980Z,447.0000
2023-05-05T12:15:32.996Z,502.0000
2023-05-05T12:16:41.271Z,468.0000
2023-05-05T12:17:49.280Z,483.0000
2023-05-05T12:18:57.408Z,482.0000
2023-05-05T12:20:05.592Z,491.0000
2023-05-05T12:21:13.482Z,468.0000
2023-05-05T12:22:21.539Z,474.0000
2023-05-05T12:23:29.641Z,474.0000
2023-05-05T12:24:37.624Z,455.0000
2023-05-05T12:25:45.721Z,474.0000
2023-05-05T12:26:53.826Z,475.0000
2023-05-05T12:28:02.036Z,451.0000
2023-05-05T12:29:09.844Z,461.0000
2023-05-05T12:30:17.929Z,520.0000
2023-05-05T12:31:25.953Z,519.0000
2023-05-05T12:32:34.259Z,474.0000
2023-05-05T12:33:42.240Z,481.0000
2023-05-05T12:34:50.308Z,422.0000
2023-05-05T12:35:58.480Z,467.0000
2023-05-05T12:37:06.362Z,442.0000
2023-05-05T12:38:14.466Z,510.0000
2023-05-05T12:39:22.565Z,474.0000
2023-05-05T12:40:30.601Z,412.0000
2023-05-05T12:41:38.668Z,448.0000
2023-05-05T12:42:46.763Z,450.0000
2023-05-05T12:43:54.756Z,493.0000
2023-05-05T12:45:02.751Z,492.0000
2023-05-05T12:46:10.928Z,475.0000
2023-05-05T12:47:19.004Z,472.0000
2023-05-05T12:48:27.111Z,467.0000
2023-05-05T12:49:35.064Z,477.0000
2023-05-05T12:50:43.251Z,456.0000
2023-05-05T12:51:51.241Z,469.0000
2023-05-05T12:52:59.358Z,496.0000
2023-05-05T12:54:07.446Z,567.0000
2023-05-05T12:55:15.567Z,472.0000
2023-05-05T12:56:23.559Z,533.0000
2023-05-05T12:57:31.562Z,474.0000
2023-05-05T12:58:39.558Z,487.0000
2023-05-05T12:59:47.675Z,468.0000
2023-05-05T13:00:55.816Z,463.0000
2023-05-05T13:02:04.160Z,523.0000
2023-05-05T13:03:12.024Z,445.0000
2023-05-05T13:04:20.042Z,473.0000
2023-05-05T13:05:28.151Z,432.0000
2023-05-05T13:06:36.248Z,526.0000
2023-05-05T13:07:44.208Z,529.0000
2023-05-05T13:08:52.305Z,452.0000
2023-05-05T13:10:00.529Z,467.0000
2023-05-05T13:11:08.405Z,483.0000
2023-05-05T13:12:16.526Z,483.0000
2023-05-05T13:13:24.449Z,493.0000
2023-05-05T13:14:32.674Z,442.0000
2023-05-05T13:15:40.653Z,472.0000
2023-05-05T13:16:48.784Z,510.0000
2023-05-05T13:17:57.100Z,473.0000
2023-05-05T13:19:04.896Z,561.0000
2023-05-05T13:20:13.054Z,468.0000